Marl, Germany

1:15 PM CET on March 02, 2015 (GMT +0100)
Dortmund | Change Station
CLOSE
Current Station
Airport
Location: Dortmund,
Elevation: 417 ft
Nearby Weather Stations

Elev 417 ft 51.52 °N, 7.61 °E | Updated 25 minutes ago

Partly Cloudy
Partly Cloudy
45 °F
Feels Like 37 °F
N
20
Wind Variable Wind from WSW
Gusts 37 mph

Today
High -- | Low -- °F
--% Chance of Precip.
Yesterday
High -- | Low -- °F
Precip. -- in
7:15 AM 6:12 PM
Waxing Gibbous, 91% visible
Pressure 29.65 in
Visibility 6.2 miles
Clouds Few 4800 ft
Windchill 37 °F
Dew Point 25 °F
Humidity 46%
Rainfall 0.00 in
Snow Depth Not available.
UV 3 out of 12
Pollen Not available.
Air Quality Not available.
Flu Activity Not available.
METAR EDLW 021150Z 25017G32KT 220V280 9999 FEW048 07/M04 Q1004 RMK ATIS P

More Conditions Fewer Conditions

Pressure 29.65 in
Visibility 6.2 miles
Clouds Few 4800 ft
Windchill 37 °F
Dew Point 25 °F
Humidity 46%
Rainfall 0.00 in
Snow Depth Not available.
UV 3 out of 12
Pollen Not available.
Air Quality Not available.
Flu Activity Not available.
METAR EDLW 021150Z 25017G32KT 220V280 9999 FEW048 07/M04 Q1004 RMK ATIS P

More Conditions Fewer Conditions

10-Day Weather Forecast

Almanac

Astronomy

Mar. 02, 2015 Rise Set
Actual Time
Civil Twilight
Nautical Twilight
Astronomical Twilight
Moon
Length of Visible Light
Length of Day
Tomorrow will be .
, % of the Moon is Illuminated

Today's Extremes

Country Highs Country Lows

Community

WunderPhotos

Upload Photos

1,801,770 photos uploaded!

WunderBlogs® & News

Nearby

Air Quality

  Air Quality AQ Index Pollutant
Not available.

Snow Depth

Station Depth Elevation

Earthquake Activity

City Distance Mag. Time & Date
Minimum magnitude displayed is 2.5.

Coastal Water Temperatures

Place Temperature

Nearby Weather Stations